sensor_id;sensor_type;location;lat;lon;timestamp;temperature;humidity
33881;DHT22;20172;47.530;10.256;2023-02-24T00:00:06;4.60;99.90
33881;DHT22;20172;47.530;10.256;2023-02-24T00:02:51;4.70;99.90
33881;DHT22;20172;47.530;10.256;2023-02-24T00:05:17;4.60;99.90
33881;DHT22;20172;47.530;10.256;2023-02-24T00:07:42;4.60;99.90
33881;DHT22;20172;47.530;10.256;2023-02-24T00:10:08;4.50;99.90
33881;DHT22;20172;47.530;10.256;2023-02-24T00:12:34;4.60;99.90
33881;DHT22;20172;47.530;10.256;2023-02-24T00:15:00;4.60;99.90
33881;DHT22;20172;47.530;10.256;2023-02-24T00:17:25;4.70;99.90
33881;DHT22;20172;47.530;10.256;2023-02-24T00:19:54;4.70;99.90
33881;DHT22;20172;47.530;10.256;2023-02-24T00:22:20;4.50;99.90
33881;DHT22;20172;47.530;10.256;2023-02-24T00:24:48;4.50;99.90
33881;DHT22;20172;47.530;10.256;2023-02-24T00:27:14;4.50;99.90
33881;DHT22;20172;47.530;10.256;2023-02-24T00:29:40;4.40;99.90
33881;DHT22;20172;47.530;10.256;2023-02-24T00:32:06;4.30;99.90
33881;DHT22;20172;47.530;10.256;2023-02-24T00:34:36;4.30;99.90
33881;DHT22;20172;47.530;10.256;2023-02-24T00:37:02;4.30;99.90
33881;DHT22;20172;47.530;10.256;2023-02-24T00:39:31;4.30;99.90
33881;DHT22;20172;47.530;10.256;2023-02-24T00:41:58;4.30;99.90
33881;DHT22;20172;47.530;10.256;2023-02-24T00:44:34;4.20;99.90
33881;DHT22;20172;47.530;10.256;2023-02-24T00:47:00;4.20;99.90
33881;DHT22;20172;47.530;10.256;2023-02-24T00:49:29;4.10;99.90
33881;DHT22;20172;47.530;10.256;2023-02-24T00:51:55;4.10;99.90
33881;DHT22;20172;47.530;10.256;2023-02-24T00:54:20;4.00;99.90
33881;DHT22;20172;47.530;10.256;2023-02-24T00:56:49;4.00;99.90
33881;DHT22;20172;47.530;10.256;2023-02-24T00:59:15;4.10;99.90
33881;DHT22;20172;47.530;10.256;2023-02-24T01:01:41;4.30;99.90
33881;DHT22;20172;47.530;10.256;2023-02-24T01:04:09;4.40;99.90
33881;DHT22;20172;47.530;10.256;2023-02-24T01:06:41;4.40;99.90
33881;DHT22;20172;47.530;10.256;2023-02-24T01:09:13;4.30;99.90
33881;DHT22;20172;47.530;10.256;2023-02-24T01:11:41;4.30;99.90
33881;DHT22;20172;47.530;10.256;2023-02-24T01:14:27;4.20;99.90
33881;DHT22;20172;47.530;10.256;2023-02-24T01:16:53;4.20;99.90
33881;DHT22;20172;47.530;10.256;2023-02-24T01:19:20;4.20;99.90
33881;DHT22;20172;47.530;10.256;2023-02-24T01:21:46;4.20;99.90
33881;DHT22;20172;47.530;10.256;2023-02-24T01:24:15;4.20;99.90
33881;DHT22;20172;47.530;10.256;2023-02-24T01:26:41;4.10;99.90
33881;DHT22;20172;47.530;10.256;2023-02-24T01:29:06;4.10;99.90
33881;DHT22;20172;47.530;10.256;2023-02-24T01:31:36;3.90;99.90
33881;DHT22;20172;47.530;10.256;2023-02-24T01:34:03;3.90;99.90
33881;DHT22;20172;47.530;10.256;2023-02-24T01:36:30;3.80;99.90
33881;DHT22;20172;47.530;10.256;2023-02-24T01:38:57;3.90;99.90
33881;DHT22;20172;47.530;10.256;2023-02-24T01:41:23;3.90;99.90
33881;DHT22;20172;47.530;10.256;2023-02-24T01:46:17;3.90;99.90
33881;DHT22;20172;47.530;10.256;2023-02-24T01:48:48;3.90;99.90
33881;DHT22;20172;47.530;10.256;2023-02-24T01:51:15;3.90;99.90
33881;DHT22;20172;47.530;10.256;2023-02-24T01:53:43;4.00;99.90
33881;DHT22;20172;47.530;10.256;2023-02-24T01:56:09;3.90;99.90
33881;DHT22;20172;47.530;10.256;2023-02-24T01:58:38;3.90;99.90
33881;DHT22;20172;47.530;10.256;2023-02-24T02:01:04;3.80;99.90
33881;DHT22;20172;47.530;10.256;2023-02-24T02:03:37;3.70;99.90
33881;DHT22;20172;47.530;10.256;2023-02-24T02:06:05;3.70;99.90
33881;DHT22;20172;47.530;10.256;2023-02-24T02:08:31;3.70;99.90
33881;DHT22;20172;47.530;10.256;2023-02-24T02:10:57;3.60;99.90
33881;DHT22;20172;47.530;10.256;2023-02-24T02:13:26;3.70;99.90
33881;DHT22;20172;47.530;10.256;2023-02-24T02:20:56;3.50;99.90
33881;DHT22;20172;47.530;10.256;2023-02-24T02:23:32;3.50;99.90
33881;DHT22;20172;47.530;10.256;2023-02-24T02:26:14;3.60;99.90
33881;DHT22;20172;47.530;10.256;2023-02-24T02:34:15;3.50;99.90
33881;DHT22;20172;47.530;10.256;2023-02-24T02:36:50;3.50;99.90
33881;DHT22;20172;47.530;10.256;2023-02-24T02:41:54;3.40;99.90
33881;DHT22;20172;47.530;10.256;2023-02-24T02:47:20;3.20;99.90
33881;DHT22;20172;47.530;10.256;2023-02-24T02:49:48;3.30;99.90
33881;DHT22;20172;47.530;10.256;2023-02-24T02:52:26;3.20;99.90
33881;DHT22;20172;47.530;10.256;2023-02-24T02:54:57;3.30;99.90
33881;DHT22;20172;47.530;10.256;2023-02-24T02:57:30;3.20;99.90
33881;DHT22;20172;47.530;10.256;2023-02-24T02:59:58;3.10;99.90
33881;DHT22;20172;47.530;10.256;2023-02-24T03:02:25;3.20;99.90
33881;DHT22;20172;47.530;10.256;2023-02-24T03:04:54;3.40;99.90
33881;DHT22;20172;47.530;10.256;2023-02-24T03:07:21;3.50;99.90
33881;DHT22;20172;47.530;10.256;2023-02-24T03:09:50;3.40;99.90
33881;DHT22;20172;47.530;10.256;2023-02-24T03:12:17;3.40;99.90
33881;DHT22;20172;47.530;10.256;2023-02-24T03:14:45;3.30;99.90
33881;DHT22;20172;47.530;10.256;2023-02-24T03:17:16;3.30;99.90
33881;DHT22;20172;47.530;10.256;2023-02-24T03:19:45;3.40;99.90
33881;DHT22;20172;47.530;10.256;2023-02-24T03:22:20;3.40;99.90
33881;DHT22;20172;47.530;10.256;2023-02-24T03:24:49;3.40;99.90
33881;DHT22;20172;47.530;10.256;2023-02-24T03:27:22;3.30;99.90
33881;DHT22;20172;47.530;10.256;2023-02-24T03:29:50;3.20;99.90
33881;DHT22;20172;47.530;10.256;2023-02-24T03:32:20;3.10;99.90
33881;DHT22;20172;47.530;10.256;2023-02-24T03:37:12;3.10;99.90
33881;DHT22;20172;47.530;10.256;2023-02-24T03:39:38;3.20;99.90
33881;DHT22;20172;47.530;10.256;2023-02-24T03:42:05;3.30;99.90
33881;DHT22;20172;47.530;10.256;2023-02-24T03:44:32;3.30;99.90
33881;DHT22;20172;47.530;10.256;2023-02-24T03:46:57;3.30;99.90
33881;DHT22;20172;47.530;10.256;2023-02-24T03:49:25;3.20;99.90
33881;DHT22;20172;47.530;10.256;2023-02-24T03:55:20;3.20;99.90
33881;DHT22;20172;47.530;10.256;2023-02-24T04:02:21;3.50;99.90
33881;DHT22;20172;47.530;10.256;2023-02-24T04:05:21;3.50;99.90
33881;DHT22;20172;47.530;10.256;2023-02-24T04:07:44;3.40;99.90
33881;DHT22;20172;47.530;10.256;2023-02-24T04:12:56;3.50;99.90
33881;DHT22;20172;47.530;10.256;2023-02-24T04:17:54;3.40;99.90
33881;DHT22;20172;47.530;10.256;2023-02-24T04:20:22;3.40;99.90
33881;DHT22;20172;47.530;10.256;2023-02-24T04:22:56;3.50;99.90
33881;DHT22;20172;47.530;10.256;2023-02-24T04:25:24;3.40;99.90
33881;DHT22;20172;47.530;10.256;2023-02-24T04:27:51;3.40;99.90
33881;DHT22;20172;47.530;10.256;2023-02-24T04:30:17;3.40;99.90
33881;DHT22;20172;47.530;10.256;2023-02-24T04:32:44;3.40;99.90
33881;DHT22;20172;47.530;10.256;2023-02-24T04:35:14;3.40;99.90
33881;DHT22;20172;47.530;10.256;2023-02-24T04:37:40;3.40;99.90
33881;DHT22;20172;47.530;10.256;2023-02-24T04:40:13;3.40;99.90
33881;DHT22;20172;47.530;10.256;2023-02-24T04:42:42;3.40;99.90
33881;DHT22;20172;47.530;10.256;2023-02-24T04:45:15;3.60;99.90
33881;DHT22;20172;47.530;10.256;2023-02-24T04:47:44;3.60;99.90
33881;DHT22;20172;47.530;10.256;2023-02-24T04:50:34;3.70;99.90
33881;DHT22;20172;47.530;10.256;2023-02-24T04:53:05;3.80;99.90
33881;DHT22;20172;47.530;10.256;2023-02-24T04:55:34;3.80;99.90
33881;DHT22;20172;47.530;10.256;2023-02-24T04:58:04;3.80;99.90
33881;DHT22;20172;47.530;10.256;2023-02-24T05:00:30;3.90;99.90
33881;DHT22;20172;47.530;10.256;2023-02-24T05:03:03;3.90;99.90
33881;DHT22;20172;47.530;10.256;2023-02-24T05:05:29;3.80;99.90
33881;DHT22;20172;47.530;10.256;2023-02-24T05:08:05;3.70;99.90
33881;DHT22;20172;47.530;10.256;2023-02-24T05:10:36;3.70;99.90
33881;DHT22;20172;47.530;10.256;2023-02-24T05:13:02;3.90;99.90
33881;DHT22;20172;47.530;10.256;2023-02-24T05:15:28;3.80;99.90
33881;DHT22;20172;47.530;10.256;2023-02-24T05:18:00;3.80;99.90
33881;DHT22;20172;47.530;10.256;2023-02-24T05:20:28;3.90;99.90
33881;DHT22;20172;47.530;10.256;2023-02-24T05:23:12;3.80;99.90
33881;DHT22;20172;47.530;10.256;2023-02-24T05:25:38;3.60;99.90
33881;DHT22;20172;47.530;10.256;2023-02-24T05:28:07;3.50;99.90
33881;DHT22;20172;47.530;10.256;2023-02-24T05:30:33;3.60;99.90
33881;DHT22;20172;47.530;10.256;2023-02-24T05:32:58;3.80;99.90
33881;DHT22;20172;47.530;10.256;2023-02-24T05:35:24;3.90;99.90
33881;DHT22;20172;47.530;10.256;2023-02-24T05:37:50;3.90;99.90
33881;DHT22;20172;47.530;10.256;2023-02-24T05:40:16;3.80;99.90
33881;DHT22;20172;47.530;10.256;2023-02-24T05:42:44;3.80;99.90
33881;DHT22;20172;47.530;10.256;2023-02-24T05:45:10;3.80;99.90
33881;DHT22;20172;47.530;10.256;2023-02-24T05:47:36;3.70;99.90
33881;DHT22;20172;47.530;10.256;2023-02-24T05:50:01;3.80;99.90
33881;DHT22;20172;47.530;10.256;2023-02-24T05:52:27;3.70;99.90
33881;DHT22;20172;47.530;10.256;2023-02-24T05:54:53;3.70;99.90
33881;DHT22;20172;47.530;10.256;2023-02-24T05:57:19;3.80;99.90
33881;DHT22;20172;47.530;10.256;2023-02-24T05:59:57;3.80;99.90
33881;DHT22;20172;47.530;10.256;2023-02-24T06:02:22;3.80;99.90
33881;DHT22;20172;47.530;10.256;2023-02-24T06:04:51;3.70;99.90
33881;DHT22;20172;47.530;10.256;2023-02-24T06:07:21;3.70;99.90
33881;DHT22;20172;47.530;10.256;2023-02-24T06:09:50;3.70;99.90
33881;DHT22;20172;47.530;10.256;2023-02-24T06:12:19;3.70;99.90
33881;DHT22;20172;47.530;10.256;2023-02-24T06:14:44;3.80;99.90
33881;DHT22;20172;47.530;10.256;2023-02-24T06:17:10;3.90;99.90
33881;DHT22;20172;47.530;10.256;2023-02-24T06:19:36;3.90;99.90
33881;DHT22;20172;47.530;10.256;2023-02-24T06:22:01;3.90;99.90
33881;DHT22;20172;47.530;10.256;2023-02-24T06:24:28;3.80;99.90
33881;DHT22;20172;47.530;10.256;2023-02-24T06:26:55;3.80;99.90
33881;DHT22;20172;47.530;10.256;2023-02-24T06:29:29;3.80;99.90
33881;DHT22;20172;47.530;10.256;2023-02-24T06:31:55;3.80;99.90
33881;DHT22;20172;47.530;10.256;2023-02-24T06:34:23;3.90;99.90
33881;DHT22;20172;47.530;10.256;2023-02-24T06:36:52;4.00;99.90
33881;DHT22;20172;47.530;10.256;2023-02-24T06:39:18;4.10;99.90
33881;DHT22;20172;47.530;10.256;2023-02-24T06:41:44;4.20;99.90
33881;DHT22;20172;47.530;10.256;2023-02-24T06:44:10;4.20;99.90
33881;DHT22;20172;47.530;10.256;2023-02-24T06:46:36;4.10;99.90
33881;DHT22;20172;47.530;10.256;2023-02-24T06:49:01;4.20;99.90
33881;DHT22;20172;47.530;10.256;2023-02-24T06:51:27;4.10;99.90
33881;DHT22;20172;47.530;10.256;2023-02-24T06:53:55;4.20;99.90
33881;DHT22;20172;47.530;10.256;2023-02-24T06:56:20;4.30;99.90
33881;DHT22;20172;47.530;10.256;2023-02-24T06:58:47;4.40;99.90
33881;DHT22;20172;47.530;10.256;2023-02-24T07:01:15;4.40;99.90
33881;DHT22;20172;47.530;10.256;2023-02-24T07:03:41;4.40;99.90
33881;DHT22;20172;47.530;10.256;2023-02-24T07:06:31;4.40;99.90
33881;DHT22;20172;47.530;10.256;2023-02-24T07:08:59;4.40;99.90
33881;DHT22;20172;47.530;10.256;2023-02-24T07:11:25;4.50;99.90
33881;DHT22;20172;47.530;10.256;2023-02-24T07:13:52;4.50;99.90
33881;DHT22;20172;47.530;10.256;2023-02-24T07:16:19;4.70;99.90
33881;DHT22;20172;47.530;10.256;2023-02-24T07:18:45;4.90;99.90
33881;DHT22;20172;47.530;10.256;2023-02-24T07:21:15;4.90;99.90
33881;DHT22;20172;47.530;10.256;2023-02-24T07:23:42;4.90;99.90
33881;DHT22;20172;47.530;10.256;2023-02-24T07:26:08;4.90;99.90
33881;DHT22;20172;47.530;10.256;2023-02-24T07:28:34;4.90;99.90
33881;DHT22;20172;47.530;10.256;2023-02-24T07:31:03;5.10;99.90
33881;DHT22;20172;47.530;10.256;2023-02-24T07:33:28;5.20;99.90
33881;DHT22;20172;47.530;10.256;2023-02-24T07:35:54;5.20;99.90
33881;DHT22;20172;47.530;10.256;2023-02-24T07:38:22;5.20;99.90
33881;DHT22;20172;47.530;10.256;2023-02-24T07:40:47;5.20;99.90
33881;DHT22;20172;47.530;10.256;2023-02-24T07:43:14;5.30;99.90
33881;DHT22;20172;47.530;10.256;2023-02-24T07:45:40;5.40;99.90
33881;DHT22;20172;47.530;10.256;2023-02-24T07:48:06;5.50;99.90
33881;DHT22;20172;47.530;10.256;2023-02-24T07:50:32;5.50;99.90
33881;DHT22;20172;47.530;10.256;2023-02-24T07:52:57;5.60;99.90
33881;DHT22;20172;47.530;10.256;2023-02-24T07:55:23;5.50;99.90
33881;DHT22;20172;47.530;10.256;2023-02-24T07:57:55;5.60;99.90
33881;DHT22;20172;47.530;10.256;2023-02-24T08:00:21;5.70;99.90
33881;DHT22;20172;47.530;10.256;2023-02-24T08:02:53;5.80;99.90
33881;DHT22;20172;47.530;10.256;2023-02-24T08:05:19;5.90;99.90
33881;DHT22;20172;47.530;10.256;2023-02-24T08:07:48;6.10;99.90
33881;DHT22;20172;47.530;10.256;2023-02-24T08:10:18;6.30;99.90
33881;DHT22;20172;47.530;10.256;2023-02-24T08:12:55;6.40;99.90
33881;DHT22;20172;47.530;10.256;2023-02-24T08:15:25;6.40;99.90
33881;DHT22;20172;47.530;10.256;2023-02-24T08:17:58;6.50;99.90
33881;DHT22;20172;47.530;10.256;2023-02-24T08:20:24;6.60;99.90
33881;DHT22;20172;47.530;10.256;2023-02-24T08:22:50;6.70;99.90
33881;DHT22;20172;47.530;10.256;2023-02-24T08:25:17;6.80;99.90
33881;DHT22;20172;47.530;10.256;2023-02-24T08:27:48;6.90;99.90
33881;DHT22;20172;47.530;10.256;2023-02-24T08:30:20;7.10;99.90
33881;DHT22;20172;47.530;10.256;2023-02-24T08:32:52;7.40;99.90
33881;DHT22;20172;47.530;10.256;2023-02-24T08:35:22;7.60;99.90
33881;DHT22;20172;47.530;10.256;2023-02-24T08:37:53;7.80;99.90
33881;DHT22;20172;47.530;10.256;2023-02-24T08:40:20;7.90;99.90
33881;DHT22;20172;47.530;10.256;2023-02-24T08:43:12;8.10;99.90
33881;DHT22;20172;47.530;10.256;2023-02-24T08:45:51;8.30;99.90
33881;DHT22;20172;47.530;10.256;2023-02-24T08:48:18;8.70;99.90
33881;DHT22;20172;47.530;10.256;2023-02-24T08:51:06;8.90;99.90
33881;DHT22;20172;47.530;10.256;2023-02-24T08:53:32;9.20;99.90
33881;DHT22;20172;47.530;10.256;2023-02-24T08:55:59;9.50;99.90
33881;DHT22;20172;47.530;10.256;2023-02-24T08:58:25;9.70;99.90
33881;DHT22;20172;47.530;10.256;2023-02-24T09:00:54;9.90;99.90
33881;DHT22;20172;47.530;10.256;2023-02-24T09:03:22;10.10;99.90
33881;DHT22;20172;47.530;10.256;2023-02-24T09:08:22;10.40;99.90
33881;DHT22;20172;47.530;10.256;2023-02-24T09:10:49;10.60;99.90
33881;DHT22;20172;47.530;10.256;2023-02-24T09:13:14;10.90;99.90
33881;DHT22;20172;47.530;10.256;2023-02-24T09:15:40;11.10;99.90
33881;DHT22;20172;47.530;10.256;2023-02-24T09:18:08;11.30;99.90
33881;DHT22;20172;47.530;10.256;2023-02-24T09:20:38;11.50;99.90
33881;DHT22;20172;47.530;10.256;2023-02-24T09:23:42;11.70;99.90
33881;DHT22;20172;47.530;10.256;2023-02-24T09:26:11;11.80;99.90
33881;DHT22;20172;47.530;10.256;2023-02-24T09:28:38;11.90;99.90
33881;DHT22;20172;47.530;10.256;2023-02-24T09:31:13;12.10;99.90
33881;DHT22;20172;47.530;10.256;2023-02-24T09:33:41;12.40;99.90
33881;DHT22;20172;47.530;10.256;2023-02-24T09:36:12;12.80;99.90
33881;DHT22;20172;47.530;10.256;2023-02-24T09:41:38;13.50;99.90
33881;DHT22;20172;47.530;10.256;2023-02-24T09:47:40;13.60;99.90
33881;DHT22;20172;47.530;10.256;2023-02-24T09:52:58;13.30;99.90
33881;DHT22;20172;47.530;10.256;2023-02-24T09:58:44;13.30;99.90
33881;DHT22;20172;47.530;10.256;2023-02-24T10:03:46;14.60;99.50
33881;DHT22;20172;47.530;10.256;2023-02-24T10:09:12;15.10;96.70
33881;DHT22;20172;47.530;10.256;2023-02-24T10:11:40;15.10;95.10
33881;DHT22;20172;47.530;10.256;2023-02-24T10:14:28;15.00;94.30
33881;DHT22;20172;47.530;10.256;2023-02-24T10:16:55;14.80;95.30
33881;DHT22;20172;47.530;10.256;2023-02-24T10:19:47;14.60;96.30
33881;DHT22;20172;47.530;10.256;2023-02-24T10:22:43;14.40;96.20
33881;DHT22;20172;47.530;10.256;2023-02-24T10:30:55;13.70;95.60
33881;DHT22;20172;47.530;10.256;2023-02-24T10:33:33;13.60;95.40
33881;DHT22;20172;47.530;10.256;2023-02-24T10:38:33;13.30;95.00
33881;DHT22;20172;47.530;10.256;2023-02-24T10:40:59;13.40;95.70
33881;DHT22;20172;47.530;10.256;2023-02-24T10:43:31;13.50;95.80
33881;DHT22;20172;47.530;10.256;2023-02-24T10:45:59;13.50;96.20
33881;DHT22;20172;47.530;10.256;2023-02-24T10:48:32;13.50;96.40
33881;DHT22;20172;47.530;10.256;2023-02-24T10:51:23;13.60;96.50
33881;DHT22;20172;47.530;10.256;2023-02-24T10:57:29;13.60;96.10
33881;DHT22;20172;47.530;10.256;2023-02-24T11:00:04;13.60;96.30
33881;DHT22;20172;47.530;10.256;2023-02-24T11:02:47;13.70;96.60
33881;DHT22;20172;47.530;10.256;2023-02-24T11:05:24;13.90;96.00
33881;DHT22;20172;47.530;10.256;2023-02-24T11:08:25;14.00;95.90
33881;DHT22;20172;47.530;10.256;2023-02-24T11:11:06;14.10;95.60
33881;DHT22;20172;47.530;10.256;2023-02-24T11:13:32;14.30;95.50
33881;DHT22;20172;47.530;10.256;2023-02-24T11:16:16;14.50;94.50
33881;DHT22;20172;47.530;10.256;2023-02-24T11:19:00;14.50;93.90
33881;DHT22;20172;47.530;10.256;2023-02-24T11:21:26;14.50;94.00
33881;DHT22;20172;47.530;10.256;2023-02-24T11:23:56;14.60;93.60
33881;DHT22;20172;47.530;10.256;2023-02-24T11:26:25;14.70;92.60
33881;DHT22;20172;47.530;10.256;2023-02-24T11:42:11;15.00;91.30
33881;DHT22;20172;47.530;10.256;2023-02-24T11:47:06;15.10;90.90
33881;DHT22;20172;47.530;10.256;2023-02-24T11:49:37;15.10;90.70
33881;DHT22;20172;47.530;10.256;2023-02-24T11:52:05;15.00;90.80
33881;DHT22;20172;47.530;10.256;2023-02-24T11:54:38;15.00;91.30
33881;DHT22;20172;47.530;10.256;2023-02-24T11:57:08;14.90;91.80
33881;DHT22;20172;47.530;10.256;2023-02-24T11:59:43;14.70;91.60
33881;DHT22;20172;47.530;10.256;2023-02-24T12:07:31;14.40;91.00
33881;DHT22;20172;47.530;10.256;2023-02-24T12:14:51;14.30;91.60
33881;DHT22;20172;47.530;10.256;2023-02-24T12:17:34;14.30;91.60
33881;DHT22;20172;47.530;10.256;2023-02-24T12:22:54;14.40;91.70
33881;DHT22;20172;47.530;10.256;2023-02-24T12:25:17;14.60;91.90
33881;DHT22;20172;47.530;10.256;2023-02-24T12:30:28;14.70;89.90
33881;DHT22;20172;47.530;10.256;2023-02-24T12:33:25;14.60;88.80
33881;DHT22;20172;47.530;10.256;2023-02-24T12:35:59;14.60;88.30
33881;DHT22;20172;47.530;10.256;2023-02-24T12:41:19;14.70;88.90
33881;DHT22;20172;47.530;10.256;2023-02-24T12:43:54;14.80;87.80
33881;DHT22;20172;47.530;10.256;2023-02-24T12:46:29;15.00;88.10
33881;DHT22;20172;47.530;10.256;2023-02-24T12:59:27;14.70;86.40
33881;DHT22;20172;47.530;10.256;2023-02-24T13:01:55;14.80;85.90
33881;DHT22;20172;47.530;10.256;2023-02-24T13:04:27;15.00;83.60
33881;DHT22;20172;47.530;10.256;2023-02-24T13:06:56;15.20;80.80
33881;DHT22;20172;47.530;10.256;2023-02-24T13:11:57;15.80;81.70
33881;DHT22;20172;47.530;10.256;2023-02-24T13:14:27;16.10;80.00
33881;DHT22;20172;47.530;10.256;2023-02-24T13:19:35;17.50;73.60
33881;DHT22;20172;47.530;10.256;2023-02-24T13:24:36;17.90;73.90
33881;DHT22;20172;47.530;10.256;2023-02-24T13:29:43;18.30;74.60
33881;DHT22;20172;47.530;10.256;2023-02-24T13:34:56;19.40;70.50
33881;DHT22;20172;47.530;10.256;2023-02-24T13:37:30;21.00;69.00
33881;DHT22;20172;47.530;10.256;2023-02-24T13:39:55;22.50;67.00
33881;DHT22;20172;47.530;10.256;2023-02-24T13:42:28;23.80;62.30
33881;DHT22;20172;47.530;10.256;2023-02-24T14:00:27;27.10;46.40
33881;DHT22;20172;47.530;10.256;2023-02-24T14:02:59;25.20;48.00
33881;DHT22;20172;47.530;10.256;2023-02-24T14:05:30;23.80;49.90
33881;DHT22;20172;47.530;10.256;2023-02-24T14:07:57;23.10;50.70
33881;DHT22;20172;47.530;10.256;2023-02-24T14:10:31;22.40;51.90
33881;DHT22;20172;47.530;10.256;2023-02-24T14:13:18;22.20;52.20
33881;DHT22;20172;47.530;10.256;2023-02-24T14:15:46;22.30;52.70
33881;DHT22;20172;47.530;10.256;2023-02-24T14:18:17;22.60;52.90
33881;DHT22;20172;47.530;10.256;2023-02-24T14:20:46;23.10;52.40
33881;DHT22;20172;47.530;10.256;2023-02-24T14:23:22;23.20;51.60
33881;DHT22;20172;47.530;10.256;2023-02-24T14:25:52;23.40;52.40
33881;DHT22;20172;47.530;10.256;2023-02-24T14:28:20;23.90;51.40
33881;DHT22;20172;47.530;10.256;2023-02-24T14:30:51;24.20;51.50
33881;DHT22;20172;47.530;10.256;2023-02-24T14:33:21;24.40;51.40
33881;DHT22;20172;47.530;10.256;2023-02-24T14:35:47;24.80;50.50
33881;DHT22;20172;47.530;10.256;2023-02-24T14:38:32;25.00;50.30
33881;DHT22;20172;47.530;10.256;2023-02-24T14:40:59;25.70;50.20
33881;DHT22;20172;47.530;10.256;2023-02-24T14:43:25;25.00;48.40
33881;DHT22;20172;47.530;10.256;2023-02-24T14:45:51;24.30;49.10
33881;DHT22;20172;47.530;10.256;2023-02-24T14:48:24;24.30;48.80
33881;DHT22;20172;47.530;10.256;2023-02-24T14:50:51;24.20;47.70
33881;DHT22;20172;47.530;10.256;2023-02-24T14:53:17;23.40;48.60
33881;DHT22;20172;47.530;10.256;2023-02-24T14:55:46;23.40;48.50
33881;DHT22;20172;47.530;10.256;2023-02-24T14:58:18;24.00;49.80
33881;DHT22;20172;47.530;10.256;2023-02-24T15:00:52;25.40;49.60
33881;DHT22;20172;47.530;10.256;2023-02-24T15:05:47;26.90;48.40
33881;DHT22;20172;47.530;10.256;2023-02-24T15:08:26;27.30;47.10
33881;DHT22;20172;47.530;10.256;2023-02-24T15:10:53;26.90;46.50
33881;DHT22;20172;47.530;10.256;2023-02-24T15:13:31;25.30;46.70
33881;DHT22;20172;47.530;10.256;2023-02-24T15:16:06;23.60;47.80
33881;DHT22;20172;47.530;10.256;2023-02-24T15:18:34;21.50;50.10
33881;DHT22;20172;47.530;10.256;2023-02-24T15:21:01;19.90;52.50
33881;DHT22;20172;47.530;10.256;2023-02-24T15:23:31;18.80;54.80
33881;DHT22;20172;47.530;10.256;2023-02-24T15:25:57;18.00;56.20
33881;DHT22;20172;47.530;10.256;2023-02-24T15:28:27;17.30;57.60
33881;DHT22;20172;47.530;10.256;2023-02-24T15:30:59;16.80;58.70
33881;DHT22;20172;47.530;10.256;2023-02-24T15:33:28;16.50;59.70
33881;DHT22;20172;47.530;10.256;2023-02-24T15:35:58;16.40;60.90
33881;DHT22;20172;47.530;10.256;2023-02-24T15:38:27;16.20;61.60
33881;DHT22;20172;47.530;10.256;2023-02-24T15:40:53;16.10;62.60
33881;DHT22;20172;47.530;10.256;2023-02-24T15:46:14;15.70;63.90
33881;DHT22;20172;47.530;10.256;2023-02-24T15:48:43;15.60;65.10
33881;DHT22;20172;47.530;10.256;2023-02-24T15:53:53;15.40;66.90
33881;DHT22;20172;47.530;10.256;2023-02-24T15:56:18;15.30;67.60
33881;DHT22;20172;47.530;10.256;2023-02-24T15:58:44;15.20;67.30
33881;DHT22;20172;47.530;10.256;2023-02-24T16:01:10;15.10;67.70
33881;DHT22;20172;47.530;10.256;2023-02-24T16:03:36;14.90;68.00
33881;DHT22;20172;47.530;10.256;2023-02-24T16:06:02;14.80;68.80
33881;DHT22;20172;47.530;10.256;2023-02-24T16:08:28;14.70;69.40
33881;DHT22;20172;47.530;10.256;2023-02-24T16:10:54;14.50;70.20
33881;DHT22;20172;47.530;10.256;2023-02-24T16:13:20;14.40;70.00
33881;DHT22;20172;47.530;10.256;2023-02-24T16:15:48;14.20;71.00
33881;DHT22;20172;47.530;10.256;2023-02-24T16:18:17;14.20;75.20
33881;DHT22;20172;47.530;10.256;2023-02-24T16:20:44;14.00;75.20
33881;DHT22;20172;47.530;10.256;2023-02-24T16:23:15;13.80;75.40
33881;DHT22;20172;47.530;10.256;2023-02-24T16:25:43;13.80;78.00
33881;DHT22;20172;47.530;10.256;2023-02-24T16:28:12;13.70;77.70
33881;DHT22;20172;47.530;10.256;2023-02-24T16:30:39;13.60;79.10
33881;DHT22;20172;47.530;10.256;2023-02-24T16:33:04;13.60;78.90
33881;DHT22;20172;47.530;10.256;2023-02-24T16:35:30;13.50;80.20
33881;DHT22;20172;47.530;10.256;2023-02-24T16:37:55;13.40;81.00
33881;DHT22;20172;47.530;10.256;2023-02-24T16:40:28;13.30;81.80
33881;DHT22;20172;47.530;10.256;2023-02-24T16:42:58;13.20;83.30
33881;DHT22;20172;47.530;10.256;2023-02-24T16:45:26;13.00;86.80
33881;DHT22;20172;47.530;10.256;2023-02-24T16:47:54;12.90;89.40
33881;DHT22;20172;47.530;10.256;2023-02-24T16:50:38;12.80;91.20
33881;DHT22;20172;47.530;10.256;2023-02-24T16:53:05;12.70;93.00
33881;DHT22;20172;47.530;10.256;2023-02-24T16:55:31;12.60;94.00
33881;DHT22;20172;47.530;10.256;2023-02-24T16:57:56;12.50;93.50
33881;DHT22;20172;47.530;10.256;2023-02-24T17:00:22;12.30;92.80
33881;DHT22;20172;47.530;10.256;2023-02-24T17:02:48;12.10;93.40
33881;DHT22;20172;47.530;10.256;2023-02-24T17:05:15;11.90;94.70
33881;DHT22;20172;47.530;10.256;2023-02-24T17:07:41;11.60;96.80
33881;DHT22;20172;47.530;10.256;2023-02-24T17:10:07;11.50;99.10
33881;DHT22;20172;47.530;10.256;2023-02-24T17:12:33;11.40;99.90
33881;DHT22;20172;47.530;10.256;2023-02-24T17:14:59;11.30;99.90
33881;DHT22;20172;47.530;10.256;2023-02-24T17:17:24;11.30;99.90
33881;DHT22;20172;47.530;10.256;2023-02-24T17:19:50;11.10;99.90
33881;DHT22;20172;47.530;10.256;2023-02-24T17:22:16;11.00;99.90
33881;DHT22;20172;47.530;10.256;2023-02-24T17:24:42;10.90;99.90
33881;DHT22;20172;47.530;10.256;2023-02-24T17:27:08;10.80;99.90
33881;DHT22;20172;47.530;10.256;2023-02-24T17:29:33;10.60;99.90
33881;DHT22;20172;47.530;10.256;2023-02-24T17:31:59;10.60;99.90
33881;DHT22;20172;47.530;10.256;2023-02-24T17:34:24;10.50;99.90
33881;DHT22;20172;47.530;10.256;2023-02-24T17:36:50;10.40;99.90
33881;DHT22;20172;47.530;10.256;2023-02-24T17:39:15;10.40;99.90
33881;DHT22;20172;47.530;10.256;2023-02-24T17:41:41;10.30;99.90
33881;DHT22;20172;47.530;10.256;2023-02-24T17:44:06;10.30;99.90
33881;DHT22;20172;47.530;10.256;2023-02-24T17:46:32;10.30;99.90
33881;DHT22;20172;47.530;10.256;2023-02-24T17:48:57;10.30;99.90
33881;DHT22;20172;47.530;10.256;2023-02-24T17:51:24;10.30;99.90
33881;DHT22;20172;47.530;10.256;2023-02-24T17:53:50;10.40;99.90
33881;DHT22;20172;47.530;10.256;2023-02-24T17:56:15;10.50;99.90
33881;DHT22;20172;47.530;10.256;2023-02-24T17:58:41;10.50;99.90
33881;DHT22;20172;47.530;10.256;2023-02-24T18:01:06;10.50;99.90
33881;DHT22;20172;47.530;10.256;2023-02-24T18:03:32;10.50;99.90
33881;DHT22;20172;47.530;10.256;2023-02-24T18:08:33;10.50;99.90